sensor_id;sensor_type;location;lat;lon;timestamp;P1;durP1;ratioP1;P2;durP2;ratioP2
52029;SDS011;38043;53.224;6.580;2022-09-13T00:01:36;25.23;;;18.55;;
52029;SDS011;38043;53.224;6.580;2022-09-13T00:04:02;22.85;;;16.77;;
52029;SDS011;38043;53.224;6.580;2022-09-13T00:06:28;28.00;;;18.50;;
52029;SDS011;38043;53.224;6.580;2022-09-13T00:08:54;23.42;;;17.40;;
52029;SDS011;38043;53.224;6.580;2022-09-13T00:11:23;23.25;;;18.27;;
52029;SDS011;38043;53.224;6.580;2022-09-13T00:13:51;23.10;;;17.60;;
52029;SDS011;38043;53.224;6.580;2022-09-13T00:16:18;24.65;;;18.35;;
52029;SDS011;38043;53.224;6.580;2022-09-13T00:18:45;25.95;;;19.23;;
52029;SDS011;38043;53.224;6.580;2022-09-13T00:21:13;28.95;;;18.75;;
52029;SDS011;38043;53.224;6.580;2022-09-13T00:23:43;27.90;;;18.73;;
52029;SDS011;38043;53.224;6.580;2022-09-13T00:26:16;28.10;;;19.08;;
52029;SDS011;38043;53.224;6.580;2022-09-13T00:28:53;27.17;;;19.00;;
52029;SDS011;38043;53.224;6.580;2022-09-13T00:31:21;25.85;;;19.00;;
52029;SDS011;38043;53.224;6.580;2022-09-13T00:36:14;23.35;;;16.25;;
52029;SDS011;38043;53.224;6.580;2022-09-13T00:38:41;21.55;;;16.13;;
52029;SDS011;38043;53.224;6.580;2022-09-13T00:41:09;24.05;;;17.33;;
52029;SDS011;38043;53.224;6.580;2022-09-13T00:46:50;24.02;;;16.42;;
52029;SDS011;38043;53.224;6.580;2022-09-13T00:51:46;22.33;;;16.73;;
52029;SDS011;38043;53.224;6.580;2022-09-13T00:54:16;21.90;;;16.40;;
52029;SDS011;38043;53.224;6.580;2022-09-13T00:56:47;26.40;;;17.73;;
52029;SDS011;38043;53.224;6.580;2022-09-13T00:59:22;26.38;;;17.60;;
52029;SDS011;38043;53.224;6.580;2022-09-13T01:02:00;27.95;;;17.58;;
52029;SDS011;38043;53.224;6.580;2022-09-13T01:04:28;23.70;;;17.85;;
52029;SDS011;38043;53.224;6.580;2022-09-13T01:06:57;28.20;;;20.33;;
52029;SDS011;38043;53.224;6.580;2022-09-13T01:09:26;29.77;;;21.35;;
52029;SDS011;38043;53.224;6.580;2022-09-13T01:11:59;31.30;;;22.13;;
52029;SDS011;38043;53.224;6.580;2022-09-13T01:14:27;34.83;;;20.63;;
52029;SDS011;38043;53.224;6.580;2022-09-13T01:16:54;29.95;;;20.10;;
52029;SDS011;38043;53.224;6.580;2022-09-13T01:19:20;30.95;;;19.48;;
52029;SDS011;38043;53.224;6.580;2022-09-13T01:21:55;26.05;;;18.75;;
52029;SDS011;38043;53.224;6.580;2022-09-13T01:27:43;29.00;;;18.30;;
52029;SDS011;38043;53.224;6.580;2022-09-13T01:30:12;24.42;;;17.15;;
52029;SDS011;38043;53.224;6.580;2022-09-13T01:38:31;24.00;;;16.38;;
52029;SDS011;38043;53.224;6.580;2022-09-13T01:41:20;19.80;;;14.35;;
52029;SDS011;38043;53.224;6.580;2022-09-13T01:43:56;18.50;;;13.82;;
52029;SDS011;38043;53.224;6.580;2022-09-13T01:49:15;21.48;;;13.80;;
52029;SDS011;38043;53.224;6.580;2022-09-13T01:51:44;18.65;;;12.77;;
52029;SDS011;38043;53.224;6.580;2022-09-13T01:54:23;16.27;;;12.57;;
52029;SDS011;38043;53.224;6.580;2022-09-13T02:05:18;19.45;;;13.30;;
52029;SDS011;38043;53.224;6.580;2022-09-13T02:08:10;18.02;;;13.07;;
52029;SDS011;38043;53.224;6.580;2022-09-13T02:10:41;20.38;;;13.50;;
52029;SDS011;38043;53.224;6.580;2022-09-13T02:13:15;17.17;;;13.05;;
52029;SDS011;38043;53.224;6.580;2022-09-13T02:15:46;20.15;;;13.45;;
52029;SDS011;38043;53.224;6.580;2022-09-13T02:18:28;20.60;;;12.82;;
52029;SDS011;38043;53.224;6.580;2022-09-13T02:20:59;19.88;;;13.38;;
52029;SDS011;38043;53.224;6.580;2022-09-13T02:23:36;17.08;;;12.20;;
52029;SDS011;38043;53.224;6.580;2022-09-13T02:26:09;17.75;;;13.07;;
52029;SDS011;38043;53.224;6.580;2022-09-13T02:28:40;20.45;;;13.73;;
52029;SDS011;38043;53.224;6.580;2022-09-13T02:31:13;19.42;;;12.48;;
52029;SDS011;38043;53.224;6.580;2022-09-13T02:33:56;19.65;;;13.85;;
52029;SDS011;38043;53.224;6.580;2022-09-13T02:36:50;19.20;;;12.43;;
52029;SDS011;38043;53.224;6.580;2022-09-13T02:39:26;16.13;;;12.48;;
52029;SDS011;38043;53.224;6.580;2022-09-13T02:47:09;23.83;;;13.43;;
52029;SDS011;38043;53.224;6.580;2022-09-13T02:53:14;20.60;;;13.85;;
52029;SDS011;38043;53.224;6.580;2022-09-13T02:58:43;19.30;;;14.90;;
52029;SDS011;38043;53.224;6.580;2022-09-13T03:01:12;20.15;;;14.18;;
52029;SDS011;38043;53.224;6.580;2022-09-13T03:03:39;17.35;;;12.55;;
52029;SDS011;38043;53.224;6.580;2022-09-13T03:06:05;22.92;;;13.48;;
52029;SDS011;38043;53.224;6.580;2022-09-13T03:08:31;19.17;;;13.10;;
52029;SDS011;38043;53.224;6.580;2022-09-13T03:11:00;11.13;;;6.10;;
52029;SDS011;38043;53.224;6.580;2022-09-13T03:31:33;5.63;;;3.05;;
52029;SDS011;38043;53.224;6.580;2022-09-13T03:34:37;5.57;;;3.58;;
52029;SDS011;38043;53.224;6.580;2022-09-13T03:37:16;5.50;;;3.28;;
52029;SDS011;38043;53.224;6.580;2022-09-13T03:39:59;7.20;;;3.55;;
52029;SDS011;38043;53.224;6.580;2022-09-13T03:42:33;7.45;;;4.10;;
52029;SDS011;38043;53.224;6.580;2022-09-13T03:45:08;7.35;;;4.07;;
52029;SDS011;38043;53.224;6.580;2022-09-13T03:47:35;6.53;;;4.10;;
52029;SDS011;38043;53.224;6.580;2022-09-13T03:50:04;5.00;;;3.72;;
52029;SDS011;38043;53.224;6.580;2022-09-13T03:52:32;6.88;;;4.13;;
52029;SDS011;38043;53.224;6.580;2022-09-13T03:54:59;8.55;;;4.13;;
52029;SDS011;38043;53.224;6.580;2022-09-13T03:57:25;7.22;;;3.05;;
52029;SDS011;38043;53.224;6.580;2022-09-13T03:59:55;4.32;;;2.50;;
52029;SDS011;38043;53.224;6.580;2022-09-13T04:02:22;4.22;;;1.83;;
52029;SDS011;38043;53.224;6.580;2022-09-13T04:04:48;5.80;;;2.03;;
52029;SDS011;38043;53.224;6.580;2022-09-13T04:07:20;4.78;;;1.92;;
52029;SDS011;38043;53.224;6.580;2022-09-13T04:09:47;5.80;;;1.88;;
52029;SDS011;38043;53.224;6.580;2022-09-13T04:12:14;5.22;;;1.80;;
52029;SDS011;38043;53.224;6.580;2022-09-13T04:14:40;7.22;;;1.73;;
52029;SDS011;38043;53.224;6.580;2022-09-13T04:17:10;4.47;;;1.90;;
52029;SDS011;38043;53.224;6.580;2022-09-13T04:19:36;4.95;;;1.80;;
52029;SDS011;38043;53.224;6.580;2022-09-13T04:22:02;5.93;;;1.80;;
52029;SDS011;38043;53.224;6.580;2022-09-13T04:24:28;7.32;;;2.17;;
52029;SDS011;38043;53.224;6.580;2022-09-13T04:26:55;7.97;;;2.05;;
52029;SDS011;38043;53.224;6.580;2022-09-13T04:29:22;6.07;;;2.05;;
52029;SDS011;38043;53.224;6.580;2022-09-13T04:31:49;4.30;;;1.60;;
52029;SDS011;38043;53.224;6.580;2022-09-13T04:34:15;5.70;;;2.05;;
52029;SDS011;38043;53.224;6.580;2022-09-13T04:36:43;5.18;;;1.98;;
52029;SDS011;38043;53.224;6.580;2022-09-13T04:39:10;6.22;;;2.28;;
52029;SDS011;38043;53.224;6.580;2022-09-13T04:44:04;6.03;;;3.33;;
52029;SDS011;38043;53.224;6.580;2022-09-13T04:46:29;6.18;;;2.70;;
52029;SDS011;38043;53.224;6.580;2022-09-13T04:48:55;7.95;;;2.90;;
52029;SDS011;38043;53.224;6.580;2022-09-13T04:51:21;7.95;;;3.17;;
52029;SDS011;38043;53.224;6.580;2022-09-13T04:53:50;4.32;;;2.63;;
52029;SDS011;38043;53.224;6.580;2022-09-13T04:56:23;7.63;;;2.63;;
52029;SDS011;38043;53.224;6.580;2022-09-13T04:58:54;5.25;;;2.30;;
52029;SDS011;38043;53.224;6.580;2022-09-13T05:01:20;9.38;;;2.40;;
52029;SDS011;38043;53.224;6.580;2022-09-13T05:03:47;5.15;;;2.75;;
52029;SDS011;38043;53.224;6.580;2022-09-13T05:06:15;8.30;;;3.05;;
52029;SDS011;38043;53.224;6.580;2022-09-13T05:08:49;6.25;;;2.95;;
52029;SDS011;38043;53.224;6.580;2022-09-13T05:11:22;4.53;;;2.85;;
52029;SDS011;38043;53.224;6.580;2022-09-13T05:13:49;8.82;;;4.10;;
52029;SDS011;38043;53.224;6.580;2022-09-13T05:16:18;6.82;;;3.40;;
52029;SDS011;38043;53.224;6.580;2022-09-13T05:18:45;6.95;;;3.00;;
52029;SDS011;38043;53.224;6.580;2022-09-13T05:21:10;9.63;;;2.63;;
52029;SDS011;38043;53.224;6.580;2022-09-13T05:23:36;6.28;;;2.45;;
52029;SDS011;38043;53.224;6.580;2022-09-13T05:26:03;7.22;;;2.63;;
52029;SDS011;38043;53.224;6.580;2022-09-13T05:28:31;11.20;;;2.17;;
52029;SDS011;38043;53.224;6.580;2022-09-13T05:33:24;7.88;;;2.50;;
52029;SDS011;38043;53.224;6.580;2022-09-13T05:35:51;11.45;;;2.50;;
52029;SDS011;38043;53.224;6.580;2022-09-13T05:38:17;6.82;;;2.15;;
52029;SDS011;38043;53.224;6.580;2022-09-13T05:40:43;8.45;;;1.90;;
52029;SDS011;38043;53.224;6.580;2022-09-13T05:43:12;6.63;;;2.13;;
52029;SDS011;38043;53.224;6.580;2022-09-13T05:45:41;11.43;;;2.60;;
52029;SDS011;38043;53.224;6.580;2022-09-13T05:48:07;12.48;;;2.38;;
52029;SDS011;38043;53.224;6.580;2022-09-13T05:50:35;8.55;;;2.03;;
52029;SDS011;38043;53.224;6.580;2022-09-13T05:53:02;10.88;;;2.47;;
52029;SDS011;38043;53.224;6.580;2022-09-13T05:55:27;8.20;;;2.10;;
52029;SDS011;38043;53.224;6.580;2022-09-13T05:57:53;8.60;;;2.13;;
52029;SDS011;38043;53.224;6.580;2022-09-13T06:00:19;10.77;;;2.30;;
52029;SDS011;38043;53.224;6.580;2022-09-13T06:02:45;11.20;;;2.55;;
52029;SDS011;38043;53.224;6.580;2022-09-13T06:05:11;11.52;;;2.30;;
52029;SDS011;38043;53.224;6.580;2022-09-13T06:07:40;8.98;;;2.17;;
52029;SDS011;38043;53.224;6.580;2022-09-13T06:10:10;10.07;;;2.20;;
52029;SDS011;38043;53.224;6.580;2022-09-13T06:12:36;12.02;;;2.58;;
52029;SDS011;38043;53.224;6.580;2022-09-13T06:15:02;12.50;;;2.33;;
52029;SDS011;38043;53.224;6.580;2022-09-13T06:17:28;10.30;;;2.70;;
52029;SDS011;38043;53.224;6.580;2022-09-13T06:19:53;15.95;;;2.65;;
52029;SDS011;38043;53.224;6.580;2022-09-13T06:22:21;12.23;;;2.67;;
52029;SDS011;38043;53.224;6.580;2022-09-13T06:24:46;13.65;;;2.25;;
52029;SDS011;38043;53.224;6.580;2022-09-13T06:27:12;7.82;;;2.10;;
52029;SDS011;38043;53.224;6.580;2022-09-13T06:29:38;10.80;;;2.92;;
52029;SDS011;38043;53.224;6.580;2022-09-13T06:32:04;11.75;;;2.35;;
52029;SDS011;38043;53.224;6.580;2022-09-13T06:34:29;6.97;;;1.85;;
52029;SDS011;38043;53.224;6.580;2022-09-13T06:36:55;10.18;;;2.72;;
52029;SDS011;38043;53.224;6.580;2022-09-13T06:39:21;11.75;;;2.58;;
52029;SDS011;38043;53.224;6.580;2022-09-13T06:41:49;12.88;;;2.60;;
52029;SDS011;38043;53.224;6.580;2022-09-13T06:44:15;11.10;;;2.40;;
52029;SDS011;38043;53.224;6.580;2022-09-13T06:46:41;7.55;;;2.33;;
52029;SDS011;38043;53.224;6.580;2022-09-13T06:49:07;9.60;;;2.10;;
52029;SDS011;38043;53.224;6.580;2022-09-13T06:51:34;12.27;;;2.53;;
52029;SDS011;38043;53.224;6.580;2022-09-13T06:54:01;10.57;;;1.98;;
52029;SDS011;38043;53.224;6.580;2022-09-13T06:56:31;6.53;;;1.50;;
52029;SDS011;38043;53.224;6.580;2022-09-13T06:59:00;16.45;;;2.53;;
52029;SDS011;38043;53.224;6.580;2022-09-13T07:01:29;10.13;;;2.00;;
52029;SDS011;38043;53.224;6.580;2022-09-13T07:04:07;6.82;;;2.30;;
52029;SDS011;38043;53.224;6.580;2022-09-13T07:06:35;14.25;;;2.50;;
52029;SDS011;38043;53.224;6.580;2022-09-13T07:09:04;8.00;;;1.75;;
52029;SDS011;38043;53.224;6.580;2022-09-13T07:11:32;9.70;;;2.22;;
52029;SDS011;38043;53.224;6.580;2022-09-13T07:14:00;8.35;;;2.10;;
52029;SDS011;38043;53.224;6.580;2022-09-13T07:16:27;9.93;;;1.63;;
52029;SDS011;38043;53.224;6.580;2022-09-13T07:18:57;8.77;;;1.80;;
52029;SDS011;38043;53.224;6.580;2022-09-13T07:21:29;10.13;;;2.22;;
52029;SDS011;38043;53.224;6.580;2022-09-13T07:23:56;10.98;;;2.15;;
52029;SDS011;38043;53.224;6.580;2022-09-13T07:26:22;11.52;;;1.70;;
52029;SDS011;38043;53.224;6.580;2022-09-13T07:28:50;5.38;;;1.38;;
52029;SDS011;38043;53.224;6.580;2022-09-13T07:31:18;5.18;;;1.10;;
52029;SDS011;38043;53.224;6.580;2022-09-13T07:33:46;6.45;;;1.90;;
52029;SDS011;38043;53.224;6.580;2022-09-13T07:36:16;12.63;;;2.78;;
52029;SDS011;38043;53.224;6.580;2022-09-13T07:38:42;7.47;;;1.80;;
52029;SDS011;38043;53.224;6.580;2022-09-13T07:41:13;5.07;;;1.50;;
52029;SDS011;38043;53.224;6.580;2022-09-13T07:43:40;12.95;;;1.50;;
52029;SDS011;38043;53.224;6.580;2022-09-13T07:46:08;7.20;;;1.40;;
52029;SDS011;38043;53.224;6.580;2022-09-13T07:48:36;8.68;;;1.40;;
52029;SDS011;38043;53.224;6.580;2022-09-13T07:51:04;7.53;;;1.17;;
52029;SDS011;38043;53.224;6.580;2022-09-13T07:53:41;6.65;;;1.45;;
52029;SDS011;38043;53.224;6.580;2022-09-13T07:58:44;4.25;;;1.13;;
52029;SDS011;38043;53.224;6.580;2022-09-13T08:01:12;9.65;;;2.05;;
52029;SDS011;38043;53.224;6.580;2022-09-13T08:03:52;7.63;;;1.27;;
52029;SDS011;38043;53.224;6.580;2022-09-13T08:06:19;10.75;;;2.13;;
52029;SDS011;38043;53.224;6.580;2022-09-13T08:08:46;7.30;;;1.80;;
52029;SDS011;38043;53.224;6.580;2022-09-13T08:11:21;13.50;;;1.67;;
52029;SDS011;38043;53.224;6.580;2022-09-13T08:13:59;6.93;;;1.48;;
52029;SDS011;38043;53.224;6.580;2022-09-13T08:16:26;10.43;;;1.75;;
52029;SDS011;38043;53.224;6.580;2022-09-13T08:18:54;6.80;;;1.65;;
52029;SDS011;38043;53.224;6.580;2022-09-13T08:21:20;10.45;;;1.50;;
52029;SDS011;38043;53.224;6.580;2022-09-13T08:23:47;14.35;;;2.08;;
52029;SDS011;38043;53.224;6.580;2022-09-13T08:26:13;8.05;;;1.80;;
52029;SDS011;38043;53.224;6.580;2022-09-13T08:28:39;6.97;;;1.52;;
52029;SDS011;38043;53.224;6.580;2022-09-13T08:31:09;10.68;;;1.77;;
52029;SDS011;38043;53.224;6.580;2022-09-13T08:33:37;9.60;;;1.83;;
52029;SDS011;38043;53.224;6.580;2022-09-13T08:36:04;3.60;;;1.05;;
52029;SDS011;38043;53.224;6.580;2022-09-13T08:38:33;10.98;;;2.42;;
52029;SDS011;38043;53.224;6.580;2022-09-13T08:40:59;12.40;;;1.50;;
52029;SDS011;38043;53.224;6.580;2022-09-13T08:48:45;5.72;;;1.50;;
52029;SDS011;38043;53.224;6.580;2022-09-13T08:54:02;8.98;;;1.38;;
52029;SDS011;38043;53.224;6.580;2022-09-13T09:05:04;6.82;;;1.48;;
52029;SDS011;38043;53.224;6.580;2022-09-13T09:07:36;8.15;;;1.85;;
52029;SDS011;38043;53.224;6.580;2022-09-13T09:10:18;10.30;;;1.60;;
52029;SDS011;38043;53.224;6.580;2022-09-13T09:12:54;4.72;;;1.40;;
52029;SDS011;38043;53.224;6.580;2022-09-13T09:15:23;5.97;;;1.40;;
52029;SDS011;38043;53.224;6.580;2022-09-13T09:18:18;5.78;;;1.40;;
52029;SDS011;38043;53.224;6.580;2022-09-13T09:21:06;10.82;;;1.42;;
52029;SDS011;38043;53.224;6.580;2022-09-13T09:23:40;5.47;;;1.52;;
52029;SDS011;38043;53.224;6.580;2022-09-13T09:31:30;5.50;;;1.40;;
52029;SDS011;38043;53.224;6.580;2022-09-13T09:36:59;10.18;;;1.48;;
52029;SDS011;38043;53.224;6.580;2022-09-13T09:39:36;8.60;;;2.05;;
52029;SDS011;38043;53.224;6.580;2022-09-13T09:42:04;8.20;;;1.55;;
52029;SDS011;38043;53.224;6.580;2022-09-13T09:44:41;9.45;;;1.40;;
52029;SDS011;38043;53.224;6.580;2022-09-13T09:52:56;5.25;;;2.03;;
52029;SDS011;38043;53.224;6.580;2022-09-13T09:55:46;4.60;;;1.10;;
52029;SDS011;38043;53.224;6.580;2022-09-13T09:58:35;8.05;;;1.60;;
52029;SDS011;38043;53.224;6.580;2022-09-13T10:01:01;11.45;;;1.50;;
52029;SDS011;38043;53.224;6.580;2022-09-13T10:03:30;6.50;;;1.75;;
52029;SDS011;38043;53.224;6.580;2022-09-13T10:06:08;5.03;;;1.20;;
52029;SDS011;38043;53.224;6.580;2022-09-13T10:08:37;10.27;;;2.38;;
52029;SDS011;38043;53.224;6.580;2022-09-13T10:11:05;6.25;;;1.73;;
52029;SDS011;38043;53.224;6.580;2022-09-13T10:13:32;6.88;;;1.30;;
52029;SDS011;38043;53.224;6.580;2022-09-13T10:15:59;9.88;;;1.52;;
52029;SDS011;38043;53.224;6.580;2022-09-13T10:18:49;5.05;;;1.27;;
52029;SDS011;38043;53.224;6.580;2022-09-13T10:23:43;7.00;;;1.73;;
52029;SDS011;38043;53.224;6.580;2022-09-13T10:28:51;5.93;;;1.35;;
52029;SDS011;38043;53.224;6.580;2022-09-13T10:31:30;3.80;;;1.05;;
52029;SDS011;38043;53.224;6.580;2022-09-13T10:36:50;6.38;;;1.95;;
52029;SDS011;38043;53.224;6.580;2022-09-13T10:39:26;6.22;;;1.48;;
52029;SDS011;38043;53.224;6.580;2022-09-13T10:41:55;7.22;;;1.65;;
52029;SDS011;38043;53.224;6.580;2022-09-13T10:44:27;5.18;;;1.35;;
52029;SDS011;38043;53.224;6.580;2022-09-13T10:46:58;5.68;;;1.33;;
52029;SDS011;38043;53.224;6.580;2022-09-13T10:52:32;5.32;;;1.50;;
52029;SDS011;38043;53.224;6.580;2022-09-13T10:57:47;4.28;;;1.10;;
52029;SDS011;38043;53.224;6.580;2022-09-13T11:00:17;5.38;;;1.63;;
52029;SDS011;38043;53.224;6.580;2022-09-13T11:28:10;6.72;;;1.73;;
52029;SDS011;38043;53.224;6.580;2022-09-13T11:47:32;9.80;;;2.22;;
52029;SDS011;38043;53.224;6.580;2022-09-13T11:53:10;4.35;;;1.40;;
52029;SDS011;38043;53.224;6.580;2022-09-13T11:55:55;8.82;;;1.65;;
52029;SDS011;38043;53.224;6.580;2022-09-13T11:58:49;9.48;;;1.60;;
52029;SDS011;38043;53.224;6.580;2022-09-13T12:01:28;8.75;;;1.63;;
52029;SDS011;38043;53.224;6.580;2022-09-13T12:04:05;8.65;;;1.58;;
52029;SDS011;38043;53.224;6.580;2022-09-13T12:06:39;8.35;;;1.55;;
52029;SDS011;38043;53.224;6.580;2022-09-13T12:09:13;6.40;;;1.67;;
52029;SDS011;38043;53.224;6.580;2022-09-13T12:11:44;6.82;;;1.60;;
52029;SDS011;38043;53.224;6.580;2022-09-13T12:14:18;15.32;;;1.83;;
52029;SDS011;38043;53.224;6.580;2022-09-13T12:16:48;10.00;;;1.80;;
52029;SDS011;38043;53.224;6.580;2022-09-13T12:19:21;6.18;;;1.50;;
52029;SDS011;38043;53.224;6.580;2022-09-13T12:21:51;7.03;;;1.38;;
52029;SDS011;38043;53.224;6.580;2022-09-13T12:24:31;6.18;;;1.75;;
52029;SDS011;38043;53.224;6.580;2022-09-13T12:29:52;9.27;;;1.88;;
52029;SDS011;38043;53.224;6.580;2022-09-13T12:32:20;9.48;;;1.60;;
52029;SDS011;38043;53.224;6.580;2022-09-13T12:34:53;7.95;;;1.60;;
52029;SDS011;38043;53.224;6.580;2022-09-13T12:40:45;5.47;;;1.40;;
52029;SDS011;38043;53.224;6.580;2022-09-13T12:49:12;5.97;;;1.30;;
52029;SDS011;38043;53.224;6.580;2022-09-13T12:52:05;8.73;;;1.70;;
52029;SDS011;38043;53.224;6.580;2022-09-13T13:07:52;9.18;;;2.08;;
52029;SDS011;38043;53.224;6.580;2022-09-13T13:10:29;8.65;;;1.90;;
52029;SDS011;38043;53.224;6.580;2022-09-13T13:21:06;9.73;;;2.08;;
52029;SDS011;38043;53.224;6.580;2022-09-13T13:26:55;6.57;;;1.70;;
52029;SDS011;38043;53.224;6.580;2022-09-13T13:34:26;9.40;;;2.28;;
52029;SDS011;38043;53.224;6.580;2022-09-13T13:39:33;6.05;;;1.50;;
52029;SDS011;38043;53.224;6.580;2022-09-13T13:49:49;8.18;;;1.70;;
52029;SDS011;38043;53.224;6.580;2022-09-13T13:58:01;9.02;;;1.33;;
52029;SDS011;38043;53.224;6.580;2022-09-13T14:00:34;4.25;;;1.42;;
52029;SDS011;38043;53.224;6.580;2022-09-13T14:05:56;9.55;;;2.03;;
52029;SDS011;38043;53.224;6.580;2022-09-13T14:19:54;9.98;;;1.45;;
52029;SDS011;38043;53.224;6.580;2022-09-13T14:22:27;5.60;;;1.48;;
52029;SDS011;38043;53.224;6.580;2022-09-13T14:27:34;7.57;;;1.80;;
52029;SDS011;38043;53.224;6.580;2022-09-13T14:30:04;9.07;;;1.73;;
52029;SDS011;38043;53.224;6.580;2022-09-13T14:32:54;7.80;;;1.73;;
52029;SDS011;38043;53.224;6.580;2022-09-13T14:35:55;9.30;;;1.50;;
52029;SDS011;38043;53.224;6.580;2022-09-13T14:38:22;10.40;;;1.80;;
52029;SDS011;38043;53.224;6.580;2022-09-13T14:40:57;7.70;;;1.58;;
52029;SDS011;38043;53.224;6.580;2022-09-13T14:43:26;6.28;;;1.52;;
52029;SDS011;38043;53.224;6.580;2022-09-13T14:48:29;13.45;;;1.70;;
52029;SDS011;38043;53.224;6.580;2022-09-13T14:51:15;4.35;;;1.35;;
52029;SDS011;38043;53.224;6.580;2022-09-13T14:54:10;5.83;;;1.80;;
52029;SDS011;38043;53.224;6.580;2022-09-13T14:59:24;4.60;;;1.33;;
52029;SDS011;38043;53.224;6.580;2022-09-13T15:01:57;7.25;;;1.88;;
52029;SDS011;38043;53.224;6.580;2022-09-13T15:04:29;5.07;;;1.35;;
52029;SDS011;38043;53.224;6.580;2022-09-13T15:07:05;7.90;;;1.98;;
52029;SDS011;38043;53.224;6.580;2022-09-13T15:12:20;8.63;;;1.88;;
52029;SDS011;38043;53.224;6.580;2022-09-13T15:14:51;5.30;;;1.33;;
52029;SDS011;38043;53.224;6.580;2022-09-13T15:17:51;7.00;;;1.63;;
52029;SDS011;38043;53.224;6.580;2022-09-13T15:25:54;6.22;;;1.35;;
52029;SDS011;38043;53.224;6.580;2022-09-13T15:28:32;11.27;;;1.92;;
52029;SDS011;38043;53.224;6.580;2022-09-13T15:31:05;9.63;;;1.77;;
52029;SDS011;38043;53.224;6.580;2022-09-13T15:33:32;8.65;;;1.40;;
52029;SDS011;38043;53.224;6.580;2022-09-13T15:41:33;8.95;;;1.63;;
52029;SDS011;38043;53.224;6.580;2022-09-13T15:44:04;5.25;;;1.50;;
52029;SDS011;38043;53.224;6.580;2022-09-13T15:46:31;7.53;;;1.63;;
52029;SDS011;38043;53.224;6.580;2022-09-13T15:49:08;2.25;;;1.15;;
52029;SDS011;38043;53.224;6.580;2022-09-13T15:51:41;6.18;;;1.00;;
52029;SDS011;38043;53.224;6.580;2022-09-13T15:54:14;8.13;;;1.93;;
52029;SDS011;38043;53.224;6.580;2022-09-13T15:56:42;5.30;;;1.20;;
52029;SDS011;38043;53.224;6.580;2022-09-13T15:59:14;5.63;;;1.40;;
52029;SDS011;38043;53.224;6.580;2022-09-13T16:01:42;9.52;;;1.95;;
52029;SDS011;38043;53.224;6.580;2022-09-13T16:04:08;10.65;;;1.65;;
52029;SDS011;38043;53.224;6.580;2022-09-13T16:06:34;10.43;;;1.90;;
52029;SDS011;38043;53.224;6.580;2022-09-13T16:09:00;4.95;;;1.42;;
52029;SDS011;38043;53.224;6.580;2022-09-13T16:11:27;8.38;;;1.30;;
52029;SDS011;38043;53.224;6.580;2022-09-13T16:13:52;6.10;;;1.23;;
52029;SDS011;38043;53.224;6.580;2022-09-13T16:16:18;8.82;;;1.63;;
52029;SDS011;38043;53.224;6.580;2022-09-13T16:18:44;14.43;;;2.08;;
52029;SDS011;38043;53.224;6.580;2022-09-13T16:21:09;7.85;;;1.52;;
52029;SDS011;38043;53.224;6.580;2022-09-13T16:23:35;8.38;;;1.75;;
52029;SDS011;38043;53.224;6.580;2022-09-13T16:26:01;8.35;;;1.55;;
52029;SDS011;38043;53.224;6.580;2022-09-13T16:28:29;8.27;;;1.83;;
52029;SDS011;38043;53.224;6.580;2022-09-13T16:30:55;7.57;;;1.40;;
52029;SDS011;38043;53.224;6.580;2022-09-13T16:33:21;8.82;;;1.40;;
52029;SDS011;38043;53.224;6.580;2022-09-13T16:35:49;9.70;;;1.85;;
52029;SDS011;38043;53.224;6.580;2022-09-13T16:38:15;10.10;;;1.58;;
52029;SDS011;38043;53.224;6.580;2022-09-13T16:40:42;8.02;;;1.52;;
52029;SDS011;38043;53.224;6.580;2022-09-13T16:43:09;7.00;;;1.58;;
52029;SDS011;38043;53.224;6.580;2022-09-13T16:45:37;8.38;;;1.52;;
52029;SDS011;38043;53.224;6.580;2022-09-13T16:50:30;11.10;;;1.83;;
52029;SDS011;38043;53.224;6.580;2022-09-13T16:52:56;5.25;;;1.15;;
52029;SDS011;38043;53.224;6.580;2022-09-13T16:55:21;5.35;;;1.10;;
52029;SDS011;38043;53.224;6.580;2022-09-13T16:57:48;7.68;;;1.55;;
52029;SDS011;38043;53.224;6.580;2022-09-13T17:00:16;7.55;;;1.30;;
52029;SDS011;38043;53.224;6.580;2022-09-13T17:02:44;5.28;;;1.35;;
52029;SDS011;38043;53.224;6.580;2022-09-13T17:05:10;10.65;;;1.27;;
52029;SDS011;38043;53.224;6.580;2022-09-13T17:07:37;8.32;;;1.35;;
52029;SDS011;38043;53.224;6.580;2022-09-13T17:10:04;8.52;;;1.20;;
52029;SDS011;38043;53.224;6.580;2022-09-13T17:12:31;6.05;;;1.30;;
52029;SDS011;38043;53.224;6.580;2022-09-13T17:14:57;12.35;;;1.58;;
52029;SDS011;38043;53.224;6.580;2022-09-13T17:17:23;13.73;;;1.40;;
52029;SDS011;38043;53.224;6.580;2022-09-13T17:19:48;4.95;;;1.35;;
52029;SDS011;38043;53.224;6.580;2022-09-13T17:22:14;7.97;;;1.80;;
52029;SDS011;38043;53.224;6.580;2022-09-13T17:24:40;9.07;;;1.48;;
52029;SDS011;38043;53.224;6.580;2022-09-13T17:27:07;3.70;;;1.10;;
52029;SDS011;38043;53.224;6.580;2022-09-13T17:29:33;5.88;;;1.42;;
52029;SDS011;38043;53.224;6.580;2022-09-13T17:32:00;4.00;;;1.30;;
52029;SDS011;38043;53.224;6.580;2022-09-13T17:34:27;4.68;;;1.10;;
52029;SDS011;38043;53.224;6.580;2022-09-13T17:36:54;15.52;;;1.38;;
52029;SDS011;38043;53.224;6.580;2022-09-13T17:39:21;5.00;;;1.58;;
52029;SDS011;38043;53.224;6.580;2022-09-13T17:41:47;5.30;;;1.30;;
52029;SDS011;38043;53.224;6.580;2022-09-13T17:44:13;6.18;;;1.98;;
52029;SDS011;38043;53.224;6.580;2022-09-13T17:46:40;5.50;;;1.88;;
52029;SDS011;38043;53.224;6.580;2022-09-13T17:49:05;6.82;;;1.52;;
52029;SDS011;38043;53.224;6.580;2022-09-13T17:51:31;5.65;;;1.33;;
52029;SDS011;38043;53.224;6.580;2022-09-13T17:54:02;5.25;;;1.60;;
52029;SDS011;38043;53.224;6.580;2022-09-13T17:56:34;5.63;;;1.45;;
52029;SDS011;38043;53.224;6.580;2022-09-13T18:01:57;8.00;;;1.58;;
52029;SDS011;38043;53.224;6.580;2022-09-13T18:04:24;6.97;;;1.38;;
52029;SDS011;38043;53.224;6.580;2022-09-13T18:06:51;5.45;;;1.17;;
52029;SDS011;38043;53.224;6.580;2022-09-13T18:09:19;6.57;;;2.00;;
52029;SDS011;38043;53.224;6.580;2022-09-13T18:11:45;4.22;;;1.40;;
52029;SDS011;38043;53.224;6.580;2022-09-13T18:14:12;4.32;;;1.40;;
52029;SDS011;38043;53.224;6.580;2022-09-13T18:19:05;5.50;;;1.35;;
52029;SDS011;38043;53.224;6.580;2022-09-13T18:21:31;5.47;;;1.40;;
52029;SDS011;38043;53.224;6.580;2022-09-13T18:23:58;7.35;;;1.52;;
52029;SDS011;38043;53.224;6.580;2022-09-13T18:28:58;5.30;;;1.00;;
52029;SDS011;38043;53.224;6.580;2022-09-13T18:31:27;5.43;;;1.42;;
52029;SDS011;38043;53.224;6.580;2022-09-13T18:33:54;5.03;;;1.45;;
52029;SDS011;38043;53.224;6.580;2022-09-13T18:38:48;6.75;;;1.65;;
52029;SDS011;38043;53.224;6.580;2022-09-13T18:43:45;7.70;;;1.60;;
52029;SDS011;38043;53.224;6.580;2022-09-13T18:46:13;6.20;;;1.27;;
52029;SDS011;38043;53.224;6.580;2022-09-13T18:48:41;6.88;;;1.20;;
52029;SDS011;38043;53.224;6.580;2022-09-13T18:51:12;7.10;;;1.50;;
52029;SDS011;38043;53.224;6.580;2022-09-13T18:53:40;7.57;;;1.60;;
52029;SDS011;38043;53.224;6.580;2022-09-13T18:56:08;9.05;;;1.70;;
52029;SDS011;38043;53.224;6.580;2022-09-13T18:58:36;6.13;;;1.42;;
52029;SDS011;38043;53.224;6.580;2022-09-13T19:01:11;7.25;;;1.52;;
52029;SDS011;38043;53.224;6.580;2022-09-13T19:03:45;5.30;;;1.30;;
52029;SDS011;38043;53.224;6.580;2022-09-13T19:06:20;8.60;;;1.60;;
52029;SDS011;38043;53.224;6.580;2022-09-13T19:08:49;5.80;;;1.38;;
52029;SDS011;38043;53.224;6.580;2022-09-13T19:11:18;4.07;;;1.60;;
52029;SDS011;38043;53.224;6.580;2022-09-13T19:13:46;8.25;;;1.52;;
52029;SDS011;38043;53.224;6.580;2022-09-13T19:16:14;7.20;;;1.52;;
52029;SDS011;38043;53.224;6.580;2022-09-13T19:18:45;6.47;;;1.30;;
52029;SDS011;38043;53.224;6.580;2022-09-13T19:21:14;9.10;;;1.48;;
52029;SDS011;38043;53.224;6.580;2022-09-13T19:23:42;6.22;;;1.30;;